sensor_id;sensor_type;location;lat;lon;timestamp;temperature;humidity
12053;DHT22;6087;48.982;12.064;2023-04-01T00:00:27;7.80;99.90
12053;DHT22;6087;48.982;12.064;2023-04-01T00:02:54;7.70;99.90
12053;DHT22;6087;48.982;12.064;2023-04-01T00:05:24;7.80;99.90
12053;DHT22;6087;48.982;12.064;2023-04-01T00:07:51;7.80;99.90
12053;DHT22;6087;48.982;12.064;2023-04-01T00:10:19;7.80;99.90
12053;DHT22;6087;48.982;12.064;2023-04-01T00:12:46;7.80;99.90
12053;DHT22;6087;48.982;12.064;2023-04-01T00:15:13;7.80;99.90
12053;DHT22;6087;48.982;12.064;2023-04-01T00:17:41;7.80;99.90
12053;DHT22;6087;48.982;12.064;2023-04-01T00:20:08;7.80;99.90
12053;DHT22;6087;48.982;12.064;2023-04-01T00:22:36;7.80;99.90
12053;DHT22;6087;48.982;12.064;2023-04-01T00:25:03;7.80;99.90
12053;DHT22;6087;48.982;12.064;2023-04-01T00:27:32;7.80;99.90
12053;DHT22;6087;48.982;12.064;2023-04-01T00:29:59;7.80;99.90
12053;DHT22;6087;48.982;12.064;2023-04-01T00:32:27;7.80;99.90
12053;DHT22;6087;48.982;12.064;2023-04-01T00:34:56;7.80;99.90
12053;DHT22;6087;48.982;12.064;2023-04-01T00:37:25;7.80;99.90
12053;DHT22;6087;48.982;12.064;2023-04-01T00:39:55;7.80;99.90
12053;DHT22;6087;48.982;12.064;2023-04-01T00:42:23;7.80;99.90
12053;DHT22;6087;48.982;12.064;2023-04-01T00:44:54;7.80;99.90
12053;DHT22;6087;48.982;12.064;2023-04-01T00:47:25;7.80;99.90
12053;DHT22;6087;48.982;12.064;2023-04-01T00:49:54;7.90;99.90
12053;DHT22;6087;48.982;12.064;2023-04-01T00:52:25;7.80;99.90
12053;DHT22;6087;48.982;12.064;2023-04-01T00:54:56;7.80;99.90
12053;DHT22;6087;48.982;12.064;2023-04-01T00:57:30;7.80;99.90
12053;DHT22;6087;48.982;12.064;2023-04-01T00:59:59;7.80;99.90
12053;DHT22;6087;48.982;12.064;2023-04-01T01:02:26;7.80;99.90
12053;DHT22;6087;48.982;12.064;2023-04-01T01:04:53;7.80;99.90
12053;DHT22;6087;48.982;12.064;2023-04-01T01:07:26;7.80;99.90
12053;DHT22;6087;48.982;12.064;2023-04-01T01:10:02;7.80;99.90
12053;DHT22;6087;48.982;12.064;2023-04-01T01:12:34;7.80;99.90
12053;DHT22;6087;48.982;12.064;2023-04-01T01:15:08;7.80;99.90
12053;DHT22;6087;48.982;12.064;2023-04-01T01:17:50;7.80;99.90
12053;DHT22;6087;48.982;12.064;2023-04-01T01:20:46;7.80;99.90
12053;DHT22;6087;48.982;12.064;2023-04-01T01:23:48;7.80;99.90
12053;DHT22;6087;48.982;12.064;2023-04-01T01:26:36;7.80;99.90
12053;DHT22;6087;48.982;12.064;2023-04-01T01:29:11;7.70;99.90
12053;DHT22;6087;48.982;12.064;2023-04-01T01:31:52;7.70;99.90
12053;DHT22;6087;48.982;12.064;2023-04-01T01:34:31;7.70;99.90
12053;DHT22;6087;48.982;12.064;2023-04-01T01:37:07;7.70;99.90
12053;DHT22;6087;48.982;12.064;2023-04-01T01:39:39;7.80;99.90
12053;DHT22;6087;48.982;12.064;2023-04-01T01:42:13;7.70;99.90
12053;DHT22;6087;48.982;12.064;2023-04-01T01:44:44;7.80;99.90
12053;DHT22;6087;48.982;12.064;2023-04-01T01:47:13;7.70;99.90
12053;DHT22;6087;48.982;12.064;2023-04-01T01:49:42;7.70;99.90
12053;DHT22;6087;48.982;12.064;2023-04-01T01:52:12;7.70;99.90
12053;DHT22;6087;48.982;12.064;2023-04-01T01:54:47;7.70;99.90
12053;DHT22;6087;48.982;12.064;2023-04-01T01:57:15;7.70;99.90
12053;DHT22;6087;48.982;12.064;2023-04-01T01:59:49;7.80;99.90
12053;DHT22;6087;48.982;12.064;2023-04-01T02:02:17;7.70;99.90
12053;DHT22;6087;48.982;12.064;2023-04-01T02:04:46;7.70;99.90
12053;DHT22;6087;48.982;12.064;2023-04-01T02:07:19;7.70;99.90
12053;DHT22;6087;48.982;12.064;2023-04-01T02:09:48;7.70;99.90
12053;DHT22;6087;48.982;12.064;2023-04-01T02:12:16;7.70;99.90
12053;DHT22;6087;48.982;12.064;2023-04-01T02:14:47;7.80;99.90
12053;DHT22;6087;48.982;12.064;2023-04-01T02:17:20;7.70;99.90
12053;DHT22;6087;48.982;12.064;2023-04-01T02:19:57;7.70;99.90
12053;DHT22;6087;48.982;12.064;2023-04-01T02:22:29;7.70;99.90
12053;DHT22;6087;48.982;12.064;2023-04-01T02:25:01;7.70;99.90
12053;DHT22;6087;48.982;12.064;2023-04-01T02:27:30;7.70;99.90
12053;DHT22;6087;48.982;12.064;2023-04-01T02:29:57;7.70;99.90
12053;DHT22;6087;48.982;12.064;2023-04-01T02:32:25;7.70;99.90
12053;DHT22;6087;48.982;12.064;2023-04-01T02:34:53;7.60;99.90
12053;DHT22;6087;48.982;12.064;2023-04-01T02:37:24;7.70;99.90
12053;DHT22;6087;48.982;12.064;2023-04-01T02:39:52;7.70;99.90
12053;DHT22;6087;48.982;12.064;2023-04-01T02:42:19;7.60;99.90
12053;DHT22;6087;48.982;12.064;2023-04-01T02:44:46;7.70;99.90
12053;DHT22;6087;48.982;12.064;2023-04-01T02:47:13;7.60;99.90
12053;DHT22;6087;48.982;12.064;2023-04-01T02:49:40;7.70;99.90
12053;DHT22;6087;48.982;12.064;2023-04-01T02:52:07;7.60;99.90
12053;DHT22;6087;48.982;12.064;2023-04-01T02:54:34;7.60;99.90
12053;DHT22;6087;48.982;12.064;2023-04-01T02:57:03;7.60;99.90
12053;DHT22;6087;48.982;12.064;2023-04-01T02:59:33;7.60;99.90
12053;DHT22;6087;48.982;12.064;2023-04-01T03:02:08;7.60;99.90
12053;DHT22;6087;48.982;12.064;2023-04-01T03:04:35;7.60;99.90
12053;DHT22;6087;48.982;12.064;2023-04-01T03:07:02;7.60;99.90
12053;DHT22;6087;48.982;12.064;2023-04-01T03:09:29;7.60;99.90
12053;DHT22;6087;48.982;12.064;2023-04-01T03:11:57;7.60;99.90
12053;DHT22;6087;48.982;12.064;2023-04-01T03:14:25;7.60;99.90
12053;DHT22;6087;48.982;12.064;2023-04-01T03:16:52;7.60;99.90
12053;DHT22;6087;48.982;12.064;2023-04-01T03:19:19;7.60;99.90
12053;DHT22;6087;48.982;12.064;2023-04-01T03:21:46;7.60;99.90
12053;DHT22;6087;48.982;12.064;2023-04-01T03:24:13;7.60;99.90
12053;DHT22;6087;48.982;12.064;2023-04-01T03:26:43;7.50;99.90
12053;DHT22;6087;48.982;12.064;2023-04-01T03:29:12;7.50;99.90
12053;DHT22;6087;48.982;12.064;2023-04-01T03:31:42;7.50;99.90
12053;DHT22;6087;48.982;12.064;2023-04-01T03:34:09;7.50;99.90
12053;DHT22;6087;48.982;12.064;2023-04-01T03:36:36;7.50;99.90
12053;DHT22;6087;48.982;12.064;2023-04-01T03:39:04;7.40;99.90
12053;DHT22;6087;48.982;12.064;2023-04-01T03:41:32;7.40;99.90
12053;DHT22;6087;48.982;12.064;2023-04-01T03:43:59;7.40;99.90
12053;DHT22;6087;48.982;12.064;2023-04-01T03:46:30;7.40;99.90
12053;DHT22;6087;48.982;12.064;2023-04-01T03:48:59;7.40;99.90
12053;DHT22;6087;48.982;12.064;2023-04-01T03:51:26;7.40;99.90
12053;DHT22;6087;48.982;12.064;2023-04-01T03:53:53;7.40;99.90
12053;DHT22;6087;48.982;12.064;2023-04-01T03:56:22;7.40;99.90
12053;DHT22;6087;48.982;12.064;2023-04-01T03:59:08;7.40;99.90
12053;DHT22;6087;48.982;12.064;2023-04-01T04:01:35;7.40;99.90
12053;DHT22;6087;48.982;12.064;2023-04-01T04:04:03;7.30;99.90
12053;DHT22;6087;48.982;12.064;2023-04-01T04:06:32;7.30;99.90
12053;DHT22;6087;48.982;12.064;2023-04-01T04:08:59;7.30;99.90
12053;DHT22;6087;48.982;12.064;2023-04-01T04:11:26;7.30;99.90
12053;DHT22;6087;48.982;12.064;2023-04-01T04:13:53;7.30;99.90
12053;DHT22;6087;48.982;12.064;2023-04-01T04:16:20;7.30;99.90
12053;DHT22;6087;48.982;12.064;2023-04-01T04:18:47;7.30;99.90
12053;DHT22;6087;48.982;12.064;2023-04-01T04:21:15;7.30;99.90
12053;DHT22;6087;48.982;12.064;2023-04-01T04:23:45;7.30;99.90
12053;DHT22;6087;48.982;12.064;2023-04-01T04:26:14;7.30;99.90
12053;DHT22;6087;48.982;12.064;2023-04-01T04:28:41;7.30;99.90
12053;DHT22;6087;48.982;12.064;2023-04-01T04:31:12;7.30;99.90
12053;DHT22;6087;48.982;12.064;2023-04-01T04:33:44;7.30;99.90
12053;DHT22;6087;48.982;12.064;2023-04-01T04:36:11;7.30;99.90
12053;DHT22;6087;48.982;12.064;2023-04-01T04:38:44;7.30;99.90
12053;DHT22;6087;48.982;12.064;2023-04-01T04:41:11;7.30;99.90
12053;DHT22;6087;48.982;12.064;2023-04-01T04:43:38;7.30;99.90
12053;DHT22;6087;48.982;12.064;2023-04-01T04:46:08;7.30;99.90
12053;DHT22;6087;48.982;12.064;2023-04-01T04:48:35;7.30;99.90
12053;DHT22;6087;48.982;12.064;2023-04-01T04:51:06;7.30;99.90
12053;DHT22;6087;48.982;12.064;2023-04-01T04:53:33;7.30;99.90
12053;DHT22;6087;48.982;12.064;2023-04-01T04:56:02;7.30;99.90
12053;DHT22;6087;48.982;12.064;2023-04-01T04:58:29;7.30;99.90
12053;DHT22;6087;48.982;12.064;2023-04-01T05:00:56;7.30;99.90
12053;DHT22;6087;48.982;12.064;2023-04-01T05:03:23;7.30;99.90
12053;DHT22;6087;48.982;12.064;2023-04-01T05:05:56;7.30;99.90
12053;DHT22;6087;48.982;12.064;2023-04-01T05:08:26;7.20;99.90
12053;DHT22;6087;48.982;12.064;2023-04-01T05:10:56;7.20;99.90
12053;DHT22;6087;48.982;12.064;2023-04-01T05:13:24;7.20;99.90
12053;DHT22;6087;48.982;12.064;2023-04-01T05:15:51;7.10;99.90
12053;DHT22;6087;48.982;12.064;2023-04-01T05:18:23;7.20;99.90
12053;DHT22;6087;48.982;12.064;2023-04-01T05:20:52;7.10;99.90
12053;DHT22;6087;48.982;12.064;2023-04-01T05:23:20;7.10;99.90
12053;DHT22;6087;48.982;12.064;2023-04-01T05:25:48;7.10;99.90
12053;DHT22;6087;48.982;12.064;2023-04-01T05:28:20;7.10;99.90
12053;DHT22;6087;48.982;12.064;2023-04-01T05:30:51;7.10;99.90
12053;DHT22;6087;48.982;12.064;2023-04-01T05:33:18;7.10;99.90
12053;DHT22;6087;48.982;12.064;2023-04-01T05:35:45;7.20;99.90
12053;DHT22;6087;48.982;12.064;2023-04-01T05:38:12;7.20;99.90
12053;DHT22;6087;48.982;12.064;2023-04-01T05:40:39;7.20;99.90
12053;DHT22;6087;48.982;12.064;2023-04-01T05:43:06;7.30;99.90
12053;DHT22;6087;48.982;12.064;2023-04-01T05:45:35;7.30;99.90
12053;DHT22;6087;48.982;12.064;2023-04-01T05:48:03;7.20;99.90
12053;DHT22;6087;48.982;12.064;2023-04-01T05:50:32;7.20;99.90
12053;DHT22;6087;48.982;12.064;2023-04-01T05:53:02;7.20;99.90
12053;DHT22;6087;48.982;12.064;2023-04-01T05:55:36;7.30;99.90
12053;DHT22;6087;48.982;12.064;2023-04-01T05:58:09;7.30;99.90
12053;DHT22;6087;48.982;12.064;2023-04-01T06:00:36;7.30;99.90
12053;DHT22;6087;48.982;12.064;2023-04-01T06:03:09;7.30;99.90
12053;DHT22;6087;48.982;12.064;2023-04-01T06:05:39;7.30;99.90
12053;DHT22;6087;48.982;12.064;2023-04-01T06:08:13;7.30;99.90
12053;DHT22;6087;48.982;12.064;2023-04-01T06:11:00;7.30;99.90
12053;DHT22;6087;48.982;12.064;2023-04-01T06:13:41;7.30;99.90
12053;DHT22;6087;48.982;12.064;2023-04-01T06:16:21;7.40;99.90
12053;DHT22;6087;48.982;12.064;2023-04-01T06:19:07;7.40;99.90
12053;DHT22;6087;48.982;12.064;2023-04-01T06:21:54;7.40;99.90
12053;DHT22;6087;48.982;12.064;2023-04-01T06:24:35;7.40;99.90
12053;DHT22;6087;48.982;12.064;2023-04-01T06:27:15;7.40;99.90
12053;DHT22;6087;48.982;12.064;2023-04-01T06:29:56;7.40;99.90
12053;DHT22;6087;48.982;12.064;2023-04-01T06:33:01;7.40;99.90
12053;DHT22;6087;48.982;12.064;2023-04-01T06:39:06;7.40;99.90
12053;DHT22;6087;48.982;12.064;2023-04-01T06:41:58;7.50;99.90
12053;DHT22;6087;48.982;12.064;2023-04-01T06:44:38;7.50;99.90
12053;DHT22;6087;48.982;12.064;2023-04-01T06:47:22;7.60;99.90
12053;DHT22;6087;48.982;12.064;2023-04-01T06:50:00;7.70;99.90
12053;DHT22;6087;48.982;12.064;2023-04-01T06:52:42;7.70;99.90
12053;DHT22;6087;48.982;12.064;2023-04-01T06:55:27;7.70;99.90
12053;DHT22;6087;48.982;12.064;2023-04-01T06:58:04;7.70;99.90
12053;DHT22;6087;48.982;12.064;2023-04-01T07:00:34;7.70;99.90
12053;DHT22;6087;48.982;12.064;2023-04-01T07:03:07;7.70;99.90
12053;DHT22;6087;48.982;12.064;2023-04-01T07:05:39;7.70;99.90
12053;DHT22;6087;48.982;12.064;2023-04-01T07:08:10;7.70;99.90
12053;DHT22;6087;48.982;12.064;2023-04-01T07:10:43;7.80;99.90
12053;DHT22;6087;48.982;12.064;2023-04-01T07:13:15;7.80;99.90
12053;DHT22;6087;48.982;12.064;2023-04-01T07:15:48;7.90;99.90
12053;DHT22;6087;48.982;12.064;2023-04-01T07:18:23;8.00;99.90
12053;DHT22;6087;48.982;12.064;2023-04-01T07:20:56;8.00;99.90
12053;DHT22;6087;48.982;12.064;2023-04-01T07:23:26;8.10;99.90
12053;DHT22;6087;48.982;12.064;2023-04-01T07:26:11;8.10;99.90
12053;DHT22;6087;48.982;12.064;2023-04-01T07:28:40;8.10;99.90
12053;DHT22;6087;48.982;12.064;2023-04-01T07:31:15;8.20;99.90
12053;DHT22;6087;48.982;12.064;2023-04-01T07:33:54;8.20;99.90
12053;DHT22;6087;48.982;12.064;2023-04-01T07:36:30;8.20;99.90
12053;DHT22;6087;48.982;12.064;2023-04-01T07:39:08;8.30;99.90
12053;DHT22;6087;48.982;12.064;2023-04-01T07:41:50;8.30;99.90
12053;DHT22;6087;48.982;12.064;2023-04-01T07:44:24;8.30;99.90
12053;DHT22;6087;48.982;12.064;2023-04-01T07:47:08;8.40;99.90
12053;DHT22;6087;48.982;12.064;2023-04-01T07:49:47;8.40;99.90
12053;DHT22;6087;48.982;12.064;2023-04-01T07:52:22;8.40;99.90
12053;DHT22;6087;48.982;12.064;2023-04-01T07:54:59;8.40;99.90
12053;DHT22;6087;48.982;12.064;2023-04-01T07:57:36;8.50;99.90
12053;DHT22;6087;48.982;12.064;2023-04-01T08:00:11;8.50;99.90
12053;DHT22;6087;48.982;12.064;2023-04-01T08:02:52;8.60;99.90
12053;DHT22;6087;48.982;12.064;2023-04-01T08:05:25;8.70;99.90
12053;DHT22;6087;48.982;12.064;2023-04-01T08:08:01;8.70;98.20
12053;DHT22;6087;48.982;12.064;2023-04-01T08:10:39;8.80;99.90
12053;DHT22;6087;48.982;12.064;2023-04-01T08:13:18;8.90;97.70
12053;DHT22;6087;48.982;12.064;2023-04-01T08:15:53;8.90;97.30
12053;DHT22;6087;48.982;12.064;2023-04-01T08:18:31;8.90;97.00
12053;DHT22;6087;48.982;12.064;2023-04-01T08:21:03;9.00;96.70
12053;DHT22;6087;48.982;12.064;2023-04-01T08:23:33;8.90;94.70
12053;DHT22;6087;48.982;12.064;2023-04-01T08:26:09;8.90;95.60
12053;DHT22;6087;48.982;12.064;2023-04-01T08:28:52;8.90;94.10
12053;DHT22;6087;48.982;12.064;2023-04-01T08:31:29;9.00;95.20
12053;DHT22;6087;48.982;12.064;2023-04-01T08:33:57;9.10;94.20
12053;DHT22;6087;48.982;12.064;2023-04-01T08:36:28;9.20;93.70
12053;DHT22;6087;48.982;12.064;2023-04-01T08:39:02;9.30;92.50
12053;DHT22;6087;48.982;12.064;2023-04-01T08:41:53;9.30;91.60
12053;DHT22;6087;48.982;12.064;2023-04-01T08:44:45;9.50;87.40
12053;DHT22;6087;48.982;12.064;2023-04-01T08:47:52;9.50;90.20
12053;DHT22;6087;48.982;12.064;2023-04-01T08:53:44;9.70;82.70
12053;DHT22;6087;48.982;12.064;2023-04-01T08:56:18;9.60;80.30
12053;DHT22;6087;48.982;12.064;2023-04-01T08:58:59;9.60;82.20
12053;DHT22;6087;48.982;12.064;2023-04-01T09:01:52;9.60;84.70
12053;DHT22;6087;48.982;12.064;2023-04-01T09:07:28;9.60;76.80
12053;DHT22;6087;48.982;12.064;2023-04-01T09:10:11;9.70;80.50
12053;DHT22;6087;48.982;12.064;2023-04-01T09:13:04;9.70;78.90
12053;DHT22;6087;48.982;12.064;2023-04-01T09:19:11;9.70;80.80
12053;DHT22;6087;48.982;12.064;2023-04-01T09:22:08;9.70;76.90
12053;DHT22;6087;48.982;12.064;2023-04-01T09:25:00;9.60;78.50
12053;DHT22;6087;48.982;12.064;2023-04-01T09:27:29;9.60;78.60
12053;DHT22;6087;48.982;12.064;2023-04-01T09:36:44;9.60;79.50
12053;DHT22;6087;48.982;12.064;2023-04-01T09:39:36;9.70;79.40
12053;DHT22;6087;48.982;12.064;2023-04-01T09:44:58;9.70;81.30
12053;DHT22;6087;48.982;12.064;2023-04-01T09:47:45;9.80;88.00
12053;DHT22;6087;48.982;12.064;2023-04-01T09:50:30;9.70;79.50
12053;DHT22;6087;48.982;12.064;2023-04-01T09:53:19;9.60;79.60
12053;DHT22;6087;48.982;12.064;2023-04-01T09:56:29;9.70;77.80
12053;DHT22;6087;48.982;12.064;2023-04-01T10:02:31;9.60;79.30
12053;DHT22;6087;48.982;12.064;2023-04-01T10:05:31;9.50;74.00
12053;DHT22;6087;48.982;12.064;2023-04-01T10:11:25;9.70;77.10
12053;DHT22;6087;48.982;12.064;2023-04-01T10:23:22;9.80;71.70
12053;DHT22;6087;48.982;12.064;2023-04-01T10:26:17;9.80;72.70
12053;DHT22;6087;48.982;12.064;2023-04-01T10:29:27;9.80;72.70
12053;DHT22;6087;48.982;12.064;2023-04-01T10:32:27;9.90;75.20
12053;DHT22;6087;48.982;12.064;2023-04-01T10:35:22;9.80;76.20
12053;DHT22;6087;48.982;12.064;2023-04-01T10:38:25;9.90;75.30
12053;DHT22;6087;48.982;12.064;2023-04-01T10:48:09;10.00;71.70
12053;DHT22;6087;48.982;12.064;2023-04-01T10:53:40;9.90;71.60
12053;DHT22;6087;48.982;12.064;2023-04-01T10:56:33;9.90;73.70
12053;DHT22;6087;48.982;12.064;2023-04-01T10:59:36;9.90;70.90
12053;DHT22;6087;48.982;12.064;2023-04-01T11:02:35;10.00;73.00
12053;DHT22;6087;48.982;12.064;2023-04-01T11:05:41;10.10;72.80
12053;DHT22;6087;48.982;12.064;2023-04-01T11:08:41;10.10;71.60
12053;DHT22;6087;48.982;12.064;2023-04-01T11:11:44;10.10;69.10
12053;DHT22;6087;48.982;12.064;2023-04-01T11:17:50;10.20;64.80
12053;DHT22;6087;48.982;12.064;2023-04-01T11:20:47;10.30;68.90
12053;DHT22;6087;48.982;12.064;2023-04-01T11:23:30;10.40;67.90
12053;DHT22;6087;48.982;12.064;2023-04-01T11:26:19;10.50;69.30
12053;DHT22;6087;48.982;12.064;2023-04-01T11:29:09;10.40;70.30
12053;DHT22;6087;48.982;12.064;2023-04-01T11:31:53;10.50;71.50
12053;DHT22;6087;48.982;12.064;2023-04-01T11:34:36;10.40;72.70
12053;DHT22;6087;48.982;12.064;2023-04-01T11:37:17;10.20;75.70
12053;DHT22;6087;48.982;12.064;2023-04-01T11:39:54;10.00;90.70
12053;DHT22;6087;48.982;12.064;2023-04-01T11:42:30;9.90;96.10
12053;DHT22;6087;48.982;12.064;2023-04-01T11:45:11;9.70;99.90
12053;DHT22;6087;48.982;12.064;2023-04-01T11:48:07;9.70;99.90
12053;DHT22;6087;48.982;12.064;2023-04-01T11:50:51;9.60;99.90
12053;DHT22;6087;48.982;12.064;2023-04-01T11:53:29;9.60;99.90
12053;DHT22;6087;48.982;12.064;2023-04-01T11:56:09;9.60;99.90
12053;DHT22;6087;48.982;12.064;2023-04-01T11:59:04;9.60;99.90
12053;DHT22;6087;48.982;12.064;2023-04-01T12:01:44;9.60;99.90
12053;DHT22;6087;48.982;12.064;2023-04-01T12:04:35;9.40;99.90
12053;DHT22;6087;48.982;12.064;2023-04-01T12:07:13;9.30;99.90
12053;DHT22;6087;48.982;12.064;2023-04-01T12:09:49;9.10;99.90
12053;DHT22;6087;48.982;12.064;2023-04-01T12:12:27;9.10;99.90
12053;DHT22;6087;48.982;12.064;2023-04-01T12:15:11;9.00;99.90
12053;DHT22;6087;48.982;12.064;2023-04-01T12:17:46;9.00;99.90
12053;DHT22;6087;48.982;12.064;2023-04-01T12:20:42;8.90;99.90
12053;DHT22;6087;48.982;12.064;2023-04-01T12:23:24;8.80;99.90
12053;DHT22;6087;48.982;12.064;2023-04-01T12:26:12;8.70;99.90
12053;DHT22;6087;48.982;12.064;2023-04-01T12:28:55;8.70;99.90
12053;DHT22;6087;48.982;12.064;2023-04-01T12:31:38;8.70;99.90
12053;DHT22;6087;48.982;12.064;2023-04-01T12:34:29;8.60;99.90
12053;DHT22;6087;48.982;12.064;2023-04-01T12:37:12;8.60;99.90
12053;DHT22;6087;48.982;12.064;2023-04-01T12:40:02;8.60;99.90
12053;DHT22;6087;48.982;12.064;2023-04-01T12:42:44;8.60;99.90
12053;DHT22;6087;48.982;12.064;2023-04-01T12:45:27;8.60;99.90
12053;DHT22;6087;48.982;12.064;2023-04-01T12:48:24;8.50;99.90
12053;DHT22;6087;48.982;12.064;2023-04-01T12:51:20;8.40;99.90
12053;DHT22;6087;48.982;12.064;2023-04-01T12:54:14;8.40;99.90
12053;DHT22;6087;48.982;12.064;2023-04-01T12:56:48;8.30;99.90
12053;DHT22;6087;48.982;12.064;2023-04-01T12:59:45;8.40;99.90
12053;DHT22;6087;48.982;12.064;2023-04-01T13:02:21;8.30;99.90
12053;DHT22;6087;48.982;12.064;2023-04-01T13:05:15;8.30;99.90
12053;DHT22;6087;48.982;12.064;2023-04-01T13:07:58;8.30;99.90
12053;DHT22;6087;48.982;12.064;2023-04-01T13:10:42;8.20;99.90
12053;DHT22;6087;48.982;12.064;2023-04-01T13:13:27;8.10;99.90
12053;DHT22;6087;48.982;12.064;2023-04-01T13:16:07;8.10;99.90
12053;DHT22;6087;48.982;12.064;2023-04-01T13:18:50;8.20;99.90
12053;DHT22;6087;48.982;12.064;2023-04-01T13:21:30;8.30;99.90
12053;DHT22;6087;48.982;12.064;2023-04-01T13:24:05;8.30;99.90
12053;DHT22;6087;48.982;12.064;2023-04-01T13:26:41;8.40;99.90
12053;DHT22;6087;48.982;12.064;2023-04-01T13:29:27;8.40;99.90
12053;DHT22;6087;48.982;12.064;2023-04-01T13:32:05;8.40;99.90
12053;DHT22;6087;48.982;12.064;2023-04-01T13:34:47;8.40;99.90
12053;DHT22;6087;48.982;12.064;2023-04-01T13:37:38;8.50;99.90
12053;DHT22;6087;48.982;12.064;2023-04-01T13:40:24;8.50;99.90
12053;DHT22;6087;48.982;12.064;2023-04-01T13:42:57;8.40;99.90
12053;DHT22;6087;48.982;12.064;2023-04-01T13:45:26;8.40;99.90
12053;DHT22;6087;48.982;12.064;2023-04-01T13:48:18;8.40;99.90
12053;DHT22;6087;48.982;12.064;2023-04-01T13:51:18;8.40;99.90
12053;DHT22;6087;48.982;12.064;2023-04-01T13:54:09;8.40;99.90
12053;DHT22;6087;48.982;12.064;2023-04-01T13:56:50;8.40;99.90
12053;DHT22;6087;48.982;12.064;2023-04-01T13:59:45;8.40;99.90
12053;DHT22;6087;48.982;12.064;2023-04-01T14:02:35;8.50;99.90
12053;DHT22;6087;48.982;12.064;2023-04-01T14:05:30;8.40;99.90
12053;DHT22;6087;48.982;12.064;2023-04-01T14:08:07;8.40;99.90
12053;DHT22;6087;48.982;12.064;2023-04-01T14:10:42;8.40;99.90
12053;DHT22;6087;48.982;12.064;2023-04-01T14:13:20;8.40;99.90
12053;DHT22;6087;48.982;12.064;2023-04-01T14:16:07;8.40;99.90
12053;DHT22;6087;48.982;12.064;2023-04-01T14:18:45;8.50;99.90
12053;DHT22;6087;48.982;12.064;2023-04-01T14:21:38;8.40;99.90
12053;DHT22;6087;48.982;12.064;2023-04-01T14:27:47;8.50;99.90
12053;DHT22;6087;48.982;12.064;2023-04-01T14:30:29;8.60;99.90
12053;DHT22;6087;48.982;12.064;2023-04-01T14:33:06;8.60;99.90
12053;DHT22;6087;48.982;12.064;2023-04-01T14:35:45;8.70;99.90
12053;DHT22;6087;48.982;12.064;2023-04-01T14:38:28;8.70;99.90
12053;DHT22;6087;48.982;12.064;2023-04-01T14:41:06;8.80;99.90
12053;DHT22;6087;48.982;12.064;2023-04-01T14:44:00;8.80;99.90
12053;DHT22;6087;48.982;12.064;2023-04-01T14:49:35;8.80;99.90
12053;DHT22;6087;48.982;12.064;2023-04-01T14:52:11;8.80;99.90
12053;DHT22;6087;48.982;12.064;2023-04-01T14:54:42;8.80;99.90
12053;DHT22;6087;48.982;12.064;2023-04-01T14:57:12;8.70;99.90
12053;DHT22;6087;48.982;12.064;2023-04-01T14:59:47;8.70;99.90
12053;DHT22;6087;48.982;12.064;2023-04-01T15:02:38;8.60;99.90
12053;DHT22;6087;48.982;12.064;2023-04-01T15:05:16;8.60;99.90
12053;DHT22;6087;48.982;12.064;2023-04-01T15:08:10;8.60;99.90
12053;DHT22;6087;48.982;12.064;2023-04-01T15:10:53;8.60;99.90
12053;DHT22;6087;48.982;12.064;2023-04-01T15:16:34;8.60;99.90
12053;DHT22;6087;48.982;12.064;2023-04-01T15:19:12;8.70;99.90
12053;DHT22;6087;48.982;12.064;2023-04-01T15:21:50;8.70;99.90
12053;DHT22;6087;48.982;12.064;2023-04-01T15:24:25;8.80;99.90
12053;DHT22;6087;48.982;12.064;2023-04-01T15:27:06;8.80;99.90
12053;DHT22;6087;48.982;12.064;2023-04-01T15:32:37;8.80;99.90
12053;DHT22;6087;48.982;12.064;2023-04-01T15:35:19;8.70;99.90
12053;DHT22;6087;48.982;12.064;2023-04-01T15:37:54;8.80;99.90
12053;DHT22;6087;48.982;12.064;2023-04-01T15:40:25;8.80;99.90
12053;DHT22;6087;48.982;12.064;2023-04-01T15:43:06;8.80;99.90
12053;DHT22;6087;48.982;12.064;2023-04-01T15:45:45;8.80;99.90
12053;DHT22;6087;48.982;12.064;2023-04-01T15:48:24;8.80;99.90
12053;DHT22;6087;48.982;12.064;2023-04-01T15:51:01;8.80;99.90
12053;DHT22;6087;48.982;12.064;2023-04-01T15:53:53;8.80;99.90
12053;DHT22;6087;48.982;12.064;2023-04-01T15:56:36;8.80;99.90
12053;DHT22;6087;48.982;12.064;2023-04-01T15:59:20;8.90;99.90
12053;DHT22;6087;48.982;12.064;2023-04-01T16:01:54;8.90;99.90
12053;DHT22;6087;48.982;12.064;2023-04-01T16:04:40;8.90;99.90
12053;DHT22;6087;48.982;12.064;2023-04-01T16:07:21;8.90;99.90
12053;DHT22;6087;48.982;12.064;2023-04-01T16:09:59;8.90;99.90
12053;DHT22;6087;48.982;12.064;2023-04-01T16:12:47;8.90;99.90
12053;DHT22;6087;48.982;12.064;2023-04-01T16:15:25;8.90;99.90
12053;DHT22;6087;48.982;12.064;2023-04-01T16:18:08;8.90;99.90
12053;DHT22;6087;48.982;12.064;2023-04-01T16:20:45;8.90;99.90
12053;DHT22;6087;48.982;12.064;2023-04-01T16:23:18;8.90;99.90
12053;DHT22;6087;48.982;12.064;2023-04-01T16:25:53;8.90;99.90
12053;DHT22;6087;48.982;12.064;2023-04-01T16:28:28;8.90;99.90
12053;DHT22;6087;48.982;12.064;2023-04-01T16:30:59;8.90;99.90
12053;DHT22;6087;48.982;12.064;2023-04-01T16:33:37;8.90;99.90
12053;DHT22;6087;48.982;12.064;2023-04-01T16:36:13;8.80;99.90
12053;DHT22;6087;48.982;12.064;2023-04-01T16:38:52;8.80;99.90
12053;DHT22;6087;48.982;12.064;2023-04-01T16:41:24;8.80;99.90
12053;DHT22;6087;48.982;12.064;2023-04-01T16:43:59;8.70;99.90
12053;DHT22;6087;48.982;12.064;2023-04-01T16:46:38;8.70;99.90
12053;DHT22;6087;48.982;12.064;2023-04-01T16:49:23;8.70;99.90
12053;DHT22;6087;48.982;12.064;2023-04-01T16:52:04;8.70;99.90
12053;DHT22;6087;48.982;12.064;2023-04-01T16:54:39;8.60;99.90
12053;DHT22;6087;48.982;12.064;2023-04-01T16:57:18;8.60;99.90
12053;DHT22;6087;48.982;12.064;2023-04-01T16:59:47;8.60;99.90
12053;DHT22;6087;48.982;12.064;2023-04-01T17:02:23;8.60;99.90
12053;DHT22;6087;48.982;12.064;2023-04-01T17:04:59;8.60;99.90
12053;DHT22;6087;48.982;12.064;2023-04-01T17:07:38;8.60;99.90
12053;DHT22;6087;48.982;12.064;2023-04-01T17:13:24;8.60;99.90
12053;DHT22;6087;48.982;12.064;2023-04-01T17:16:06;8.60;99.90
12053;DHT22;6087;48.982;12.064;2023-04-01T17:18:41;8.50;99.90
12053;DHT22;6087;48.982;12.064;2023-04-01T17:21:16;8.60;99.90
12053;DHT22;6087;48.982;12.064;2023-04-01T17:23:51;8.50;99.90
12053;DHT22;6087;48.982;12.064;2023-04-01T17:26:27;8.50;99.90
12053;DHT22;6087;48.982;12.064;2023-04-01T17:29:06;8.50;99.90
12053;DHT22;6087;48.982;12.064;2023-04-01T17:31:46;8.50;99.90
12053;DHT22;6087;48.982;12.064;2023-04-01T17:34:25;8.50;99.90
12053;DHT22;6087;48.982;12.064;2023-04-01T17:37:13;8.50;99.90
12053;DHT22;6087;48.982;12.064;2023-04-01T17:39:53;8.50;99.90
12053;DHT22;6087;48.982;12.064;2023-04-01T17:42:31;8.50;99.90
12053;DHT22;6087;48.982;12.064;2023-04-01T17:45:11;8.40;99.90
12053;DHT22;6087;48.982;12.064;2023-04-01T17:47:52;8.40;99.90
12053;DHT22;6087;48.982;12.064;2023-04-01T17:50:24;8.40;99.90
12053;DHT22;6087;48.982;12.064;2023-04-01T17:53:11;8.40;99.90
12053;DHT22;6087;48.982;12.064;2023-04-01T17:55:51;8.40;99.90